Great Hebei — VRFU6 — position and weather

sailwx.info

Track history (hours):
 
Tides and Currents Weather Stations Pressure Air Temp Water Temp Dewpoint Dewpoint Depression Visibility Wind Speed Wind Dir Waves Ship Positions

Great Hebei

Last reported at 2017-Oct-06 23:50 UTC. Time now 2017-Oct-19 20:16 UTC.
Position S 16°22' E 117°35'.
Warning: this ship's position is 12 days out of date.

Length 295 m; draft 18.3 m.

Type: Cargo ship. MMSI: 477617100.

Date/timePositionNaut miles runAvg speedWind from/ knotsBaromVisibWave heightAir tempDewpointWater temp
2017-Oct-06 23:50S 16°22' E 117°35'611.7
2017-Oct-06 23:17S 16°28' E 117°36'1611.7
2017-Oct-06 21:56S 16°43' E 117°40'17911.6
2017-Oct-06 06:30S 19°38' E 118°23'912.8
2017-Oct-06 05:49S 19°46' E 118°25'412.7
2017-Oct-06 05:30S 19°50' E 118°26'612.1
2017-Oct-06 05:00S 19°56' E 118°28'611.8
2017-Oct-06 04:30S 20°01' E 118°25'20 1.8
2017-Oct-05 17:27S 20°20' E 118°35'0 0.0
2017-Oct-05 15:27S 20°20' E 118°35'0 0.0
2017-Oct-05 14:57S 20°20' E 118°35'0 0.0
2017-Oct-05 14:15S 20°20' E 118°35'0 0.0
2017-Oct-05 13:45S 20°20' E 118°35'0 0.0
2017-Oct-05 11:57S 20°20' E 118°35'0 0.0
2017-Oct-05 11:27S 20°20' E 118°35'0 0.0
2017-Oct-05 09:51S 20°20' E 118°35'0 0.0
2017-Oct-05 09:27S 20°20' E 118°35'0 0.0
2017-Oct-04 17:03S 20°20' E 118°35'0 0.0
2017-Oct-04 16:57S 20°20' E 118°35'0 0.4
2017-Oct-04 16:29S 20°20' E 118°35'2 4.8
2017-Oct-04 16:00S 20°17' E 118°35'5 9.8
2017-Oct-04 15:27S 20°12' E 118°33'3 7.0
2017-Oct-04 15:00S 20°09' E 118°34'2 4.4
2017-Oct-04 14:27S 20°07' E 118°35'0 0.6
2017-Oct-04 13:58S 20°07' E 118°36'0 0.1
2017-Oct-04 13:28S 20°07' E 118°36'0 0.0
2017-Oct-04 12:46S 20°07' E 118°36'0 0.0
2017-Oct-04 12:22S 20°07' E 118°36'0 0.0
2017-Oct-04 11:58S 20°07' E 118°36'0 0.0
2017-Oct-04 11:04S 20°07' E 118°36'0 0.0
2017-Oct-04 10:16S 20°07' E 118°36'0 0.0
2017-Oct-04 09:34S 20°07' E 118°36'0 0.0
2017-Oct-04 02:58S 20°07' E 118°36'0 0.0
2017-Oct-03 23:34S 20°07' E 118°36'0 0.0
2017-Oct-03 08:40S 20°07' E 118°36'0 0.0
2017-Oct-03 06:58S 20°07' E 118°36'0 0.1
2017-Oct-03 05:22S 20°07' E 118°36'0 0.0
2017-Oct-03 04:52S 20°07' E 118°36'0 0.1
2017-Oct-03 03:28S 20°07' E 118°36'0 0.0
2017-Oct-03 01:52S 20°07' E 118°36'0 0.0
2017-Oct-03 01:28S 20°07' E 118°36'0 0.0
2017-Oct-03 00:40S 20°07' E 118°36'0 0.0
2017-Oct-03 00:28S 20°07' E 118°36'0 0.0
2017-Oct-02 23:59S 20°07' E 118°36'0 0.3
2017-Oct-02 23:30S 20°07' E 118°36'1 2.8
2017-Oct-02 23:00S 20°06' E 118°36'2 4.3
2017-Oct-02 22:30S 20°05' E 118°35'4 9.0
2017-Oct-02 22:00S 20°01' E 118°32'611.2
2017-Oct-02 21:30S 19°57' E 118°28'5 9.7
2017-Oct-02 21:00S 19°52' E 118°27'6 7.9
2017-Oct-02 20:18S 19°47' E 118°25'3 9.5
2017-Oct-02 20:00S 19°44' E 118°25'5 9.4
2017-Oct-02 19:29S 19°39' E 118°23'5 9.6
2017-Oct-02 18:58S 19°34' E 118°22'5 9.5
2017-Oct-02 18:29S 19°30' E 118°20'5 9.7
2017-Oct-02 18:00S 19°25' E 118°19'5 9.5
2017-Oct-02 17:30S 19°21' E 118°19'5 9.4
2017-Oct-02 17:00S 19°16' E 118°18'6 9.2
2017-Oct-02 16:19S 19°10' E 118°16'3 9.3
2017-Oct-02 15:58S 19°07' E 118°15'4 9.4
2017-Oct-02 15:30S 19°03' E 118°14'5 9.6
2017-Oct-02 15:00S 18°58' E 118°13'5 9.7
2017-Oct-02 14:28S 18°53' E 118°12'510.0
2017-Oct-02 13:59S 18°48' E 118°10'5 9.6
2017-Oct-02 13:29S 18°44' E 118°09'21 9.8
2017-Oct-02 11:20S 18°23' E 118°04'3 9.8
2017-Oct-02 10:59S 18°20' E 118°03'5 9.9
2017-Oct-02 10:28S 18°15' E 118°02'86 9.9
2017-Oct-02 01:50S 16°52' E 117°40'  
Track history (hours):
 
Tides and Currents Weather Stations Pressure Air Temp Water Temp Dewpoint Dewpoint Depression Visibility Wind Speed Wind Dir Waves Ship Positions

Great Hebei

Last reported at 2017-Oct-06 23:50 UTC. Time now 2017-Oct-19 20:16 UTC.
Position S 16°22' E 117°35'.
Warning: this ship's position is 12 days out of date.

Length 295 m; draft 18.3 m.

Type: Cargo ship. MMSI: 477617100.

Date/timePositionNaut miles runAvg speedWind from/ knotsBaromVisibWave heightAir tempDewpointWater temp
2017-Oct-06 23:50S 16°22' E 117°35'611.7
2017-Oct-06 23:17S 16°28' E 117°36'1611.7
2017-Oct-06 21:56S 16°43' E 117°40'17911.6
2017-Oct-06 06:30S 19°38' E 118°23'912.8
2017-Oct-06 05:49S 19°46' E 118°25'412.7
2017-Oct-06 05:30S 19°50' E 118°26'612.1
2017-Oct-06 05:00S 19°56' E 118°28'611.8
2017-Oct-06 04:30S 20°01' E 118°25'20 1.8
2017-Oct-05 17:27S 20°20' E 118°35'0 0.0
2017-Oct-05 15:27S 20°20' E 118°35'0 0.0
2017-Oct-05 14:57S 20°20' E 118°35'0 0.0
2017-Oct-05 14:15S 20°20' E 118°35'0 0.0
2017-Oct-05 13:45S 20°20' E 118°35'0 0.0
2017-Oct-05 11:57S 20°20' E 118°35'0 0.0
2017-Oct-05 11:27S 20°20' E 118°35'0 0.0
2017-Oct-05 09:51S 20°20' E 118°35'0 0.0
2017-Oct-05 09:27S 20°20' E 118°35'0 0.0
2017-Oct-04 17:03S 20°20' E 118°35'0 0.0
2017-Oct-04 16:57S 20°20' E 118°35'0 0.4
2017-Oct-04 16:29S 20°20' E 118°35'2 4.8
2017-Oct-04 16:00S 20°17' E 118°35'5 9.8
2017-Oct-04 15:27S 20°12' E 118°33'3 7.0
2017-Oct-04 15:00S 20°09' E 118°34'2 4.4
2017-Oct-04 14:27S 20°07' E 118°35'0 0.6
2017-Oct-04 13:58S 20°07' E 118°36'0 0.1
2017-Oct-04 13:28S 20°07' E 118°36'0 0.0
2017-Oct-04 12:46S 20°07' E 118°36'0 0.0
2017-Oct-04 12:22S 20°07' E 118°36'0 0.0
2017-Oct-04 11:58S 20°07' E 118°36'0 0.0
2017-Oct-04 11:04S 20°07' E 118°36'0 0.0
2017-Oct-04 10:16S 20°07' E 118°36'0 0.0
2017-Oct-04 09:34S 20°07' E 118°36'0 0.0
2017-Oct-04 02:58S 20°07' E 118°36'0 0.0
2017-Oct-03 23:34S 20°07' E 118°36'0 0.0
2017-Oct-03 08:40S 20°07' E 118°36'0 0.0
2017-Oct-03 06:58S 20°07' E 118°36'0 0.1
2017-Oct-03 05:22S 20°07' E 118°36'0 0.0
2017-Oct-03 04:52S 20°07' E 118°36'0 0.1
2017-Oct-03 03:28S 20°07' E 118°36'0 0.0
2017-Oct-03 01:52S 20°07' E 118°36'0 0.0
2017-Oct-03 01:28S 20°07' E 118°36'0 0.0
2017-Oct-03 00:40S 20°07' E 118°36'0 0.0
2017-Oct-03 00:28S 20°07' E 118°36'0 0.0
2017-Oct-02 23:59S 20°07' E 118°36'0 0.3
2017-Oct-02 23:30S 20°07' E 118°36'1 2.8
2017-Oct-02 23:00S 20°06' E 118°36'2 4.3
2017-Oct-02 22:30S 20°05' E 118°35'4 9.0
2017-Oct-02 22:00S 20°01' E 118°32'611.2
2017-Oct-02 21:30S 19°57' E 118°28'5 9.7
2017-Oct-02 21:00S 19°52' E 118°27'6 7.9
2017-Oct-02 20:18S 19°47' E 118°25'3 9.5
2017-Oct-02 20:00S 19°44' E 118°25'5 9.4
2017-Oct-02 19:29S 19°39' E 118°23'5 9.6
2017-Oct-02 18:58S 19°34' E 118°22'5 9.5
2017-Oct-02 18:29S 19°30' E 118°20'5 9.7
2017-Oct-02 18:00S 19°25' E 118°19'5 9.5
2017-Oct-02 17:30S 19°21' E 118°19'5 9.4
2017-Oct-02 17:00S 19°16' E 118°18'6 9.2
2017-Oct-02 16:19S 19°10' E 118°16'3 9.3
2017-Oct-02 15:58S 19°07' E 118°15'4 9.4
2017-Oct-02 15:30S 19°03' E 118°14'5 9.6
2017-Oct-02 15:00S 18°58' E 118°13'5 9.7
2017-Oct-02 14:28S 18°53' E 118°12'510.0
2017-Oct-02 13:59S 18°48' E 118°10'5 9.6
2017-Oct-02 13:29S 18°44' E 118°09'21 9.8
2017-Oct-02 11:20S 18°23' E 118°04'3 9.8
2017-Oct-02 10:59S 18°20' E 118°03'5 9.9
2017-Oct-02 10:28S 18°15' E 118°02'86 9.9
2017-Oct-02 01:50S 16°52' E 117°40'  

Dump ship's entire track history